Time;durP1;ratioP1;P1;durP2;ratioP2;P2;SDS_P1;SDS_P2;PMS_P1;PMS_P2;Temp;Humidity;BMP_temperature;BMP_pressure;BME280_temperature;BME280_humidity;BME280_pressure;Samples;Min_cycle;Max_cycle;Signal;HPM_P1;HPM_P2
2024/04/13 00:00:50;;;;;;;15.85;11.02;;;19.40;73.10;;;;;;5505881;26;20020;-73
2024/04/13 00:03:17;;;;;;;15.02;9.90;;;19.40;73.30;;;;;;5458420;26;20421;-75
2024/04/13 00:05:44;;;;;;;18.25;9.95;;;19.40;73.30;;;;;;5460938;26;20003;-73
2024/04/13 00:08:16;;;;;;;20.38;10.10;;;19.40;73.70;;;;;;5505527;26;20006;-73
2024/04/13 00:10:43;;;;;;;14.25;8.90;;;19.40;73.80;;;;;;5491386;26;20051;-74
2024/04/13 00:13:11;;;;;;;16.55;9.25;;;19.30;74.50;;;;;;5458928;26;20324;-76
2024/04/13 00:15:38;;;;;;;18.13;9.48;;;19.30;74.70;;;;;;5462919;26;20042;-75
2024/04/13 00:18:06;;;;;;;15.43;9.13;;;19.30;75.00;;;;;;5435824;26;20026;-76
2024/04/13 00:20:34;;;;;;;13.23;8.80;;;19.30;75.00;;;;;;5504750;26;20348;-74
2024/04/13 00:23:04;;;;;;;15.48;8.88;;;19.30;75.00;;;;;;5461719;26;20514;-74
2024/04/13 00:25:31;;;;;;;13.52;9.13;;;19.30;75.00;;;;;;5490620;26;20446;-74
2024/04/13 00:27:58;;;;;;;16.58;9.27;;;19.20;75.40;;;;;;5490188;26;20010;-75
2024/04/13 00:30:29;;;;;;;19.83;9.70;;;19.20;75.20;;;;;;5510181;26;20539;-73
2024/04/13 00:33:01;;;;;;;15.27;9.85;;;19.10;75.00;;;;;;5485743;26;20005;-74
2024/04/13 00:35:33;;;;;;;17.48;10.98;;;19.00;74.80;;;;;;5460258;26;20006;-73
2024/04/13 00:38:02;;;;;;;20.27;9.57;;;19.00;75.10;;;;;;5473951;26;20034;-74
2024/04/13 00:40:32;;;;;;;19.58;11.02;;;18.90;75.10;;;;;;5490431;26;20006;-73
2024/04/13 00:43:10;;;;;;;19.02;11.65;;;18.90;74.90;;;;;;5457398;26;20053;-74
2024/04/13 00:45:46;;;;;;;21.10;10.75;;;18.90;74.80;;;;;;5490768;26;20005;-74
2024/04/13 00:48:36;;;;;;;15.73;9.18;;;18.90;75.10;;;;;;5459623;26;20020;-74
2024/04/13 00:51:06;;;;;;;19.42;10.57;;;18.90;76.90;;;;;;5481849;26;20027;-74
2024/04/13 00:53:40;;;;;;;15.73;11.07;;;18.90;75.70;;;;;;5462280;26;20457;-74
2024/04/13 00:56:08;;;;;;;15.02;10.43;;;18.80;75.50;;;;;;5457273;26;20231;-74
2024/04/13 00:58:36;;;;;;;14.77;10.35;;;18.70;75.90;;;;;;5477987;26;20324;-74
2024/04/13 01:01:10;;;;;;;17.95;10.95;;;18.70;76.00;;;;;;5463032;26;20607;-74
2024/04/13 01:03:38;;;;;;;19.27;9.68;;;18.70;76.10;;;;;;5445903;26;20034;-74
2024/04/13 01:06:08;;;;;;;16.65;11.18;;;18.70;76.20;;;;;;5491110;26;19998;-74
2024/04/13 01:08:35;;;;;;;13.90;9.73;;;18.70;76.20;;;;;;5489442;26;20013;-74
2024/04/13 01:11:03;;;;;;;14.48;9.93;;;18.50;76.60;;;;;;5489909;26;20009;-74
2024/04/13 01:13:31;;;;;;;20.15;10.27;;;18.50;76.90;;;;;;5489391;26;20034;-75
2024/04/13 01:15:58;;;;;;;16.58;10.50;;;18.60;76.90;;;;;;5489133;26;20002;-75
2024/04/13 01:18:26;;;;;;;15.77;10.07;;;18.60;77.00;;;;;;5440577;26;20008;-75
2024/04/13 01:20:54;;;;;;;13.75;9.93;;;18.70;76.90;;;;;;5467823;26;20050;-74
2024/04/13 01:23:23;;;;;;;16.80;9.93;;;18.70;77.00;;;;;;5491550;26;20009;-74
2024/04/13 01:25:51;;;;;;;13.68;9.00;;;18.60;77.20;;;;;;5526137;26;20320;-73
2024/04/13 01:28:19;;;;;;;14.73;10.68;;;18.40;77.30;;;;;;5456950;26;20012;-74
2024/04/13 01:30:47;;;;;;;18.73;10.43;;;18.40;77.50;;;;;;5457558;26;19998;-75
2024/04/13 01:33:14;;;;;;;16.77;10.75;;;18.30;77.90;;;;;;5504212;26;20013;-74
2024/04/13 01:35:41;;;;;;;16.10;11.20;;;18.40;78.30;;;;;;5500120;26;19997;-76
2024/04/13 01:38:09;;;;;;;15.05;10.27;;;18.40;77.60;;;;;;5493524;26;19998;-74
2024/04/13 01:40:36;;;;;;;16.90;10.50;;;18.40;77.70;;;;;;5467449;26;20013;-74
2024/04/13 01:43:04;;;;;;;19.40;10.73;;;18.40;77.90;;;;;;5488624;26;20038;-78
2024/04/13 01:45:31;;;;;;;15.55;9.70;;;18.40;78.00;;;;;;5438321;26;20034;-74
2024/04/13 01:47:59;;;;;;;17.55;10.55;;;18.40;78.00;;;;;;5491761;26;20002;-75
2024/04/13 01:50:27;;;;;;;16.58;10.68;;;18.30;78.00;;;;;;5467074;26;20349;-75
2024/04/13 01:52:55;;;;;;;14.50;10.38;;;18.20;78.00;;;;;;5475470;26;20009;-75
2024/04/13 01:55:22;;;;;;;21.17;10.88;;;18.30;78.10;;;;;;5489054;26;20002;-75
2024/04/13 01:57:49;;;;;;;16.33;10.32;;;18.20;78.00;;;;;;5450622;26;20439;-74
2024/04/13 02:00:18;;;;;;;15.27;9.93;;;18.20;78.20;;;;;;5497947;26;20001;-75
2024/04/13 02:02:46;;;;;;;17.88;10.20;;;18.20;78.20;;;;;;5461691;26;20013;-74
2024/04/13 02:05:13;;;;;;;16.80;10.05;;;18.20;78.20;;;;;;5486032;26;20321;-76
2024/04/13 02:07:41;;;;;;;13.98;8.85;;;18.10;78.30;;;;;;5482971;26;20097;-75
2024/04/13 02:10:10;;;;;;;13.93;9.90;;;18.10;78.30;;;;;;5499200;26;20002;-76
2024/04/13 02:12:37;;;;;;;14.55;9.50;;;18.10;78.40;;;;;;5487792;26;20002;-74
2024/04/13 02:15:05;;;;;;;17.60;10.18;;;18.00;78.80;;;;;;5488502;26;19995;-75
2024/04/13 02:17:33;;;;;;;15.50;9.40;;;17.90;78.80;;;;;;5427071;26;20006;-74
2024/04/13 02:20:01;;;;;;;12.85;9.75;;;17.90;78.90;;;;;;5512226;26;19998;-75
2024/04/13 02:22:32;;;;;;;14.65;10.27;;;17.80;79.20;;;;;;5431627;26;20012;-74
2024/04/13 02:25:00;;;;;;;17.80;9.88;;;17.80;79.60;;;;;;5488046;26;20386;-75
2024/04/13 02:27:27;;;;;;;13.98;10.02;;;17.80;79.70;;;;;;5479083;26;20031;-75
2024/04/13 02:29:55;;;;;;;18.20;10.57;;;17.70;79.80;;;;;;5488020;26;20002;-75
2024/04/13 02:32:23;;;;;;;15.27;10.48;;;17.70;79.90;;;;;;5471373;26;20029;-74
2024/04/13 02:34:50;;;;;;;14.20;9.95;;;17.70;80.20;;;;;;5502276;26;20002;-74
2024/04/13 02:37:17;;;;;;;16.77;9.10;;;17.70;80.00;;;;;;5471470;26;20333;-74
2024/04/13 02:39:44;;;;;;;15.27;10.10;;;17.70;80.20;;;;;;5500864;26;20026;-74
2024/04/13 02:42:12;;;;;;;16.98;10.30;;;17.70;80.10;;;;;;5496891;26;20390;-74
2024/04/13 02:44:40;;;;;;;13.73;9.23;;;17.70;79.90;;;;;;5484818;26;20074;-73
2024/04/13 02:47:07;;;;;;;13.77;9.57;;;17.70;79.90;;;;;;5478995;26;19994;-75
2024/04/13 02:49:34;;;;;;;17.38;9.93;;;17.80;80.00;;;;;;5457110;26;20010;-77
2024/04/13 02:52:03;;;;;;;16.25;9.77;;;17.80;80.00;;;;;;5454637;26;20002;-75
2024/04/13 02:54:30;;;;;;;16.92;9.48;;;17.80;80.10;;;;;;5488107;26;20042;-75
2024/04/13 02:56:57;;;;;;;14.93;9.48;;;17.80;80.20;;;;;;5466129;26;19998;-74
2024/04/13 02:59:25;;;;;;;16.55;10.38;;;17.80;79.90;;;;;;5425542;26;20451;-72
2024/04/13 03:01:52;;;;;;;17.67;10.00;;;17.70;80.10;;;;;;5487874;26;20020;-73
2024/04/13 03:04:23;;;;;;;14.10;9.93;;;17.60;80.00;;;;;;5487772;26;20026;-73
2024/04/13 03:06:50;;;;;;;16.42;10.85;;;17.70;80.30;;;;;;5431481;26;20014;-72
2024/04/13 03:09:20;;;;;;;16.30;9.95;;;17.70;80.40;;;;;;5476290;26;20310;-75
2024/04/13 03:11:47;;;;;;;13.70;9.73;;;17.60;80.40;;;;;;5488055;26;19998;-75
2024/04/13 03:14:15;;;;;;;15.32;9.65;;;17.60;80.80;;;;;;5487679;26;20373;-76
2024/04/13 03:16:43;;;;;;;17.08;9.85;;;17.40;81.00;;;;;;5477675;26;20009;-73
2024/04/13 03:19:10;;;;;;;15.35;9.80;;;17.40;81.10;;;;;;5490376;26;20034;-74
2024/04/13 03:21:38;;;;;;;13.35;9.73;;;17.50;81.20;;;;;;5498562;26;20008;-75
2024/04/13 03:24:06;;;;;;;14.50;10.13;;;17.50;81.40;;;;;;5486482;26;20378;-74
2024/04/13 03:26:33;;;;;;;13.85;9.52;;;17.40;81.30;;;;;;5487496;26;20002;-72
2024/04/13 03:29:01;;;;;;;13.77;9.73;;;17.40;81.20;;;;;;5487173;26;20082;-73
2024/04/13 03:31:28;;;;;;;14.07;10.07;;;17.40;81.50;;;;;;5487081;26;20013;-75
2024/04/13 03:33:59;;;;;;;14.57;10.15;;;17.40;81.40;;;;;;5478686;26;20418;-73
2024/04/13 03:36:27;;;;;;;;;;;17.40;81.40;;;;;;5500224;26;20382;-73
2024/04/13 03:38:59;;;;;;;12.85;9.68;;;17.50;81.30;;;;;;5487151;26;19935;-73
2024/04/13 03:41:26;;;;;;;22.20;10.07;;;17.50;81.40;;;;;;5486942;26;20002;-74
2024/04/13 03:43:54;;;;;;;15.07;9.50;;;17.50;81.60;;;;;;5464078;26;20456;-75
2024/04/13 03:46:22;;;;;;;15.77;10.10;;;17.50;81.30;;;;;;5455528;26;20345;-75
2024/04/13 03:48:49;;;;;;;17.67;10.07;;;17.50;81.40;;;;;;5478064;26;19994;-74
2024/04/13 03:51:17;;;;;;;18.00;10.25;;;17.50;81.50;;;;;;5502970;26;20002;-75
2024/04/13 03:53:44;;;;;;;24.08;10.95;;;17.40;81.60;;;;;;5520122;26;20073;-74
2024/04/13 03:56:13;;;;;;;18.15;11.60;;;17.40;82.00;;;;;;5485719;26;19997;-74
2024/04/13 03:58:40;;;;;;;19.48;11.10;;;17.40;82.10;;;;;;5498032;26;19998;-74
2024/04/13 04:01:07;;;;;;;14.50;10.25;;;17.40;82.20;;;;;;5493669;26;20327;-75
2024/04/13 04:03:37;;;;;;;14.50;10.30;;;17.40;82.60;;;;;;5503505;26;20002;-74
2024/04/13 04:06:05;;;;;;;17.52;10.18;;;17.40;82.50;;;;;;5486221;26;20021;-74
2024/04/13 04:08:33;;;;;;;15.00;11.02;;;17.20;82.60;;;;;;5486432;26;20808;-73
2024/04/13 04:11:01;;;;;;;16.52;11.93;;;17.10;82.50;;;;;;5489209;26;20433;-74
2024/04/13 04:13:28;;;;;;;13.00;9.98;;;17.10;82.50;;;;;;5486492;26;20017;-74
2024/04/13 04:15:56;;;;;;;14.98;10.85;;;17.10;82.50;;;;;;5515339;26;20340;-74
2024/04/13 04:18:24;;;;;;;14.52;10.30;;;17.10;82.80;;;;;;5486133;26;20384;-74
2024/04/13 04:20:52;;;;;;;16.15;10.05;;;17.10;82.80;;;;;;5486497;26;20013;-75
2024/04/13 04:23:19;;;;;;;15.75;10.77;;;17.10;82.70;;;;;;5486433;26;20017;-75
2024/04/13 04:25:46;;;;;;;19.98;11.50;;;17.10;82.90;;;;;;5491082;26;20002;-73
2024/04/13 04:28:14;;;;;;;14.77;11.15;;;17.10;82.90;;;;;;5458484;26;19998;-75
2024/04/13 04:30:45;;;;;;;17.45;11.25;;;17.10;82.70;;;;;;5510808;26;20038;-74
2024/04/13 04:33:12;;;;;;;15.00;10.57;;;17.10;83.00;;;;;;5486847;26;20349;-74
2024/04/13 04:35:40;;;;;;;14.35;10.85;;;17.10;82.80;;;;;;5488667;26;20006;-75
2024/04/13 04:38:07;;;;;;;16.42;10.95;;;17.10;83.10;;;;;;5458119;26;19998;-74
2024/04/13 04:40:40;;;;;;;21.48;11.18;;;17.10;83.40;;;;;;5490229;26;20069;-74
2024/04/13 04:43:07;;;;;;;17.63;11.15;;;17.00;83.70;;;;;;5511030;26;20005;-73
2024/04/13 04:45:36;;;;;;;20.83;11.60;;;17.00;83.40;;;;;;5511112;26;20459;-74
2024/04/13 04:48:05;;;;;;;13.95;10.35;;;17.00;83.70;;;;;;5513716;26;20012;-75
2024/04/13 04:50:34;;;;;;;17.48;11.18;;;17.00;83.80;;;;;;5471862;26;20451;-75
2024/04/13 04:53:04;;;;;;;15.63;10.63;;;17.00;84.10;;;;;;5457282;26;20070;-74
2024/04/13 04:55:32;;;;;;;16.75;11.20;;;17.10;84.00;;;;;;5494489;26;20020;-74
2024/04/13 04:57:59;;;;;;;17.67;11.02;;;17.10;84.00;;;;;;5489208;26;20002;-75
2024/04/13 05:00:27;;;;;;;23.30;11.00;;;17.20;83.90;;;;;;5491123;26;20017;-75
2024/04/13 05:02:54;;;;;;;19.25;10.68;;;17.20;83.60;;;;;;5525234;26;20013;-73
2024/04/13 05:05:21;;;;;;;17.88;12.20;;;17.20;83.30;;;;;;5504196;26;19998;-73
2024/04/13 05:07:49;;;;;;;22.80;12.93;;;17.20;84.00;;;;;;5489439;26;20013;-74
2024/04/13 05:10:19;;;;;;;18.58;11.52;;;17.30;84.10;;;;;;5513617;26;20351;-74
2024/04/13 05:12:46;;;;;;;15.25;11.82;;;17.30;83.80;;;;;;5489699;26;20010;-73
2024/04/13 05:15:14;;;;;;;18.48;11.43;;;17.20;83.70;;;;;;5489209;26;20317;-73
2024/04/13 05:17:41;;;;;;;18.88;11.25;;;17.30;83.40;;;;;;5456550;26;20013;-74
2024/04/13 05:20:09;;;;;;;20.25;12.02;;;17.40;83.30;;;;;;5483855;26;20042;-74
2024/04/13 05:22:42;;;;;;;16.10;11.10;;;17.40;83.10;;;;;;5502236;26;20065;-74
2024/04/13 05:25:10;;;;;;;18.33;11.25;;;17.50;82.90;;;;;;5456740;26;20087;-74
2024/04/13 05:27:39;;;;;;;18.92;11.05;;;17.50;83.10;;;;;;5490086;26;20002;-74
2024/04/13 05:30:10;;;;;;;19.42;11.60;;;17.60;82.90;;;;;;5511504;26;20017;-73
2024/04/13 05:32:37;;;;;;;20.75;12.25;;;17.60;82.90;;;;;;5500801;26;20010;-75
2024/04/13 05:35:05;;;;;;;17.10;12.02;;;17.50;83.50;;;;;;5523502;26;20027;-74
2024/04/13 05:37:34;;;;;;;18.65;11.82;;;17.50;83.30;;;;;;5489275;26;20348;-74
2024/04/13 05:40:01;;;;;;;17.33;11.98;;;17.60;83.60;;;;;;5489613;26;20021;-73
2024/04/13 05:42:28;;;;;;;24.77;12.35;;;17.60;83.60;;;;;;5473705;26;20077;-74
2024/04/13 05:44:56;;;;;;;21.45;12.27;;;17.70;83.20;;;;;;5495470;26;20017;-75
2024/04/13 05:47:28;;;;;;;17.33;11.73;;;17.80;83.10;;;;;;5488347;26;19998;-73
2024/04/13 05:50:02;;;;;;;15.52;12.15;;;17.80;83.00;;;;;;5473419;26;20017;-74
2024/04/13 05:52:30;;;;;;;18.95;12.38;;;17.90;82.60;;;;;;5511441;26;20007;-72
2024/04/13 05:55:01;;;;;;;21.90;12.90;;;18.00;82.50;;;;;;5489362;26;20079;-72
2024/04/13 05:57:29;;;;;;;22.77;12.30;;;18.00;82.60;;;;;;5488521;26;20398;-74
2024/04/13 05:59:57;;;;;;;27.42;13.48;;;18.00;82.40;;;;;;5456398;26;20505;-74
2024/04/13 06:02:26;;;;;;;19.85;12.07;;;18.00;82.20;;;;;;5488545;26;20009;-73
2024/04/13 06:04:54;;;;;;;22.40;13.77;;;18.20;82.30;;;;;;5493937;26;20324;-74
2024/04/13 06:07:23;;;;;;;20.02;12.20;;;18.20;82.10;;;;;;5500855;26;20010;-73
2024/04/13 06:09:50;;;;;;;27.92;12.70;;;18.30;82.20;;;;;;5493507;26;20010;-76
2024/04/13 06:12:18;;;;;;;19.02;12.35;;;18.20;82.00;;;;;;5488930;26;20014;-75
2024/04/13 06:14:49;;;;;;;16.08;11.35;;;18.20;82.30;;;;;;5488514;26;19994;-74
2024/04/13 06:17:19;;;;;;;21.73;11.98;;;18.20;82.10;;;;;;5488745;26;20004;-74
2024/04/13 06:19:49;;;;;;;20.83;10.80;;;18.30;82.00;;;;;;5509485;26;20398;-74
2024/04/13 06:22:24;;;;;;;19.23;11.20;;;18.50;82.00;;;;;;5490472;26;20370;-75
2024/04/13 06:24:51;;;;;;;21.05;11.90;;;18.60;81.70;;;;;;5512731;26;20074;-74
2024/04/13 06:27:19;;;;;;;18.10;11.77;;;18.60;81.80;;;;;;5489049;26;20014;-74
2024/04/13 06:29:48;;;;;;;16.55;12.20;;;18.60;81.90;;;;;;5522092;26;20002;-74
2024/04/13 06:32:16;;;;;;;19.23;11.80;;;18.70;81.60;;;;;;5472697;26;20002;-76
2024/04/13 06:34:44;;;;;;;18.48;10.75;;;18.80;81.50;;;;;;5426709;26;20093;-76
2024/04/13 06:37:13;;;;;;;20.63;12.60;;;18.70;81.00;;;;;;5480388;26;20013;-76
2024/04/13 06:39:40;;;;;;;18.83;12.38;;;18.80;80.90;;;;;;5487981;26;20425;-75
2024/04/13 06:42:08;;;;;;;21.75;12.00;;;18.80;81.00;;;;;;5495286;26;20006;-73
2024/04/13 06:44:35;;;;;;;21.98;11.13;;;18.90;81.50;;;;;;5487916;26;20014;-74
2024/04/13 06:47:03;;;;;;;16.02;10.93;;;18.90;81.50;;;;;;5495736;26;20004;-76
2024/04/13 06:49:34;;;;;;;20.50;12.85;;;19.00;81.30;;;;;;5472854;26;20330;-77
2024/04/13 06:52:04;;;;;;;17.42;10.82;;;19.10;81.60;;;;;;5468926;26;20369;-75
2024/04/13 06:54:32;;;;;;;15.77;10.68;;;19.20;81.20;;;;;;5495355;26;20485;-75
2024/04/13 06:57:09;;;;;;;17.50;11.20;;;19.30;81.60;;;;;;5504070;26;20074;-75
2024/04/13 06:59:51;;;;;;;22.73;11.23;;;19.40;80.90;;;;;;5438345;26;20382;-74
2024/04/13 07:02:24;;;;;;;21.25;11.23;;;19.40;80.90;;;;;;5487926;26;20391;-75
2024/04/13 07:04:52;;;;;;;16.95;10.88;;;19.50;80.80;;;;;;5484096;26;20014;-74
2024/04/13 07:07:21;;;;;;;135.05;84.90;;;19.50;81.30;;;;;;5497614;26;20006;-76
2024/04/13 07:09:49;;;;;;;64.32;44.35;;;19.70;80.90;;;;;;5487911;26;20077;-75
2024/04/13 07:12:16;;;;;;;41.20;27.77;;;19.80;80.50;;;;;;5510738;26;20005;-75
2024/04/13 07:14:43;;;;;;;17.08;12.65;;;19.90;80.20;;;;;;5487449;26;20017;-75
2024/04/13 07:17:11;;;;;;;23.92;12.35;;;20.00;79.40;;;;;;5486821;26;20029;-77
2024/04/13 07:19:39;;;;;;;26.52;18.60;;;20.10;79.50;;;;;;5504263;26;20084;-77
2024/04/13 07:22:08;;;;;;;27.42;15.40;;;20.20;78.20;;;;;;5490239;26;20124;-76
2024/04/13 07:24:40;;;;;;;64.53;46.00;;;20.20;78.10;;;;;;5495162;26;20047;-77
2024/04/13 07:27:08;;;;;;;48.33;34.90;;;20.20;77.80;;;;;;5487391;26;20009;-77
2024/04/13 07:29:36;;;;;;;17.30;12.98;;;20.40;77.90;;;;;;5455331;26;19998;-75
2024/04/13 07:32:07;;;;;;;16.10;9.43;;;20.40;77.60;;;;;;5502199;26;20015;-76
2024/04/13 07:34:36;;;;;;;16.02;10.18;;;20.40;76.40;;;;;;5487117;26;20010;-75
2024/04/13 07:37:03;;;;;;;15.35;9.18;;;20.60;76.10;;;;;;5501993;26;20010;-76
2024/04/13 07:39:31;;;;;;;19.70;9.18;;;20.70;75.40;;;;;;5486315;26;20006;-76
2024/04/13 07:41:58;;;;;;;14.35;7.95;;;20.80;75.30;;;;;;5510816;26;20496;-75
2024/04/13 07:44:26;;;;;;;16.65;8.07;;;20.80;75.00;;;;;;5508859;26;20001;-75
2024/04/13 07:46:53;;;;;;;16.45;8.00;;;20.90;75.50;;;;;;5507516;26;20321;-76
2024/04/13 07:49:21;;;;;;;12.70;8.48;;;21.00;75.60;;;;;;5500229;26;20042;-75
2024/04/13 07:51:48;;;;;;;16.73;9.20;;;21.10;75.90;;;;;;5468451;26;20013;-76
2024/04/13 07:54:15;;;;;;;12.20;8.15;;;21.20;74.70;;;;;;5486545;26;20007;-77
2024/04/13 07:56:43;;;;;;;16.88;9.93;;;21.30;74.90;;;;;;5492058;26;20464;-75
2024/04/13 07:59:11;;;;;;;14.85;8.23;;;21.40;73.30;;;;;;5464925;26;20047;-75
2024/04/13 08:01:38;;;;;;;14.13;8.02;;;21.30;73.90;;;;;;5486935;26;20313;-75
2024/04/13 08:04:06;;;;;;;15.43;8.15;;;21.40;74.20;;;;;;5488866;26;20006;-75
2024/04/13 08:06:33;;;;;;;14.65;8.85;;;21.40;74.50;;;;;;5498270;26;20425;-74
2024/04/13 08:09:00;;;;;;;13.60;7.70;;;21.50;74.20;;;;;;5519449;26;20001;-75
2024/04/13 08:11:30;;;;;;;13.30;7.82;;;21.50;73.80;;;;;;5489024;26;20080;-74
2024/04/13 08:13:58;;;;;;;13.60;8.20;;;21.60;73.50;;;;;;5496817;26;20042;-75
2024/04/13 08:16:25;;;;;;;12.85;7.45;;;21.60;72.90;;;;;;5465163;26;20050;-75
2024/04/13 08:18:53;;;;;;;16.40;8.55;;;21.80;73.80;;;;;;5504725;26;20002;-75
2024/04/13 08:21:20;;;;;;;12.18;7.60;;;21.80;73.20;;;;;;5500232;26;19998;-75
2024/04/13 08:23:48;;;;;;;59.60;45.00;;;21.80;73.10;;;;;;5490517;26;19998;-77
2024/04/13 08:26:15;;;;;;;72.43;50.17;;;21.80;73.30;;;;;;5458969;26;20010;-76
2024/04/13 08:28:42;;;;;;;17.75;12.02;;;21.90;73.20;;;;;;5489733;26;20006;-74
2024/04/13 08:31:10;;;;;;;54.45;39.88;;;22.00;73.10;;;;;;5489111;26;20066;-75
2024/04/13 08:33:37;;;;;;;29.73;22.17;;;22.10;72.70;;;;;;5498219;26;20518;-74
2024/04/13 08:36:06;;;;;;;20.65;14.13;;;22.10;72.60;;;;;;5490149;26;20389;-75
2024/04/13 08:38:33;;;;;;;14.85;8.77;;;22.20;73.10;;;;;;5497871;26;20013;-72
2024/04/13 08:41:31;;;;;;;13.10;9.35;;;22.30;73.30;;;;;;5489245;26;20014;-73
2024/04/13 08:44:00;;;;;;;13.10;8.55;;;22.40;72.70;;;;;;5456920;26;20078;-76
2024/04/13 08:46:28;;;;;;;15.20;8.25;;;22.50;71.40;;;;;;5478417;26;20029;-76
2024/04/13 08:48:56;;;;;;;13.07;7.45;;;22.60;71.60;;;;;;5490026;26;20215;-74
2024/04/13 08:51:24;;;;;;;10.15;6.82;;;22.80;71.40;;;;;;5498118;26;20001;-75
2024/04/13 08:53:51;;;;;;;12.63;7.22;;;22.80;71.10;;;;;;5507620;26;20009;-76
2024/04/13 08:56:23;;;;;;;11.77;6.75;;;22.90;69.20;;;;;;5489654;26;19994;-73
2024/04/13 08:58:52;;;;;;;17.05;7.55;;;23.00;69.10;;;;;;5502119;26;20009;-75
2024/04/13 09:01:24;;;;;;;11.43;7.53;;;23.10;68.80;;;;;;5498565;26;20354;-74
2024/04/13 09:03:53;;;;;;;13.65;7.03;;;23.20;69.80;;;;;;5502984;26;20527;-74
2024/04/13 09:06:21;;;;;;;12.57;7.53;;;23.20;69.20;;;;;;5490339;26;20107;-74
2024/04/13 09:08:49;;;;;;;12.35;7.80;;;23.40;69.50;;;;;;5498729;26;20441;-73
2024/04/13 09:11:22;;;;;;;29.45;19.83;;;23.40;69.60;;;;;;5491003;26;20014;-73
2024/04/13 09:13:49;;;;;;;14.65;8.20;;;23.50;67.70;;;;;;5461981;26;19994;-73
2024/04/13 09:16:18;;;;;;;13.55;7.72;;;23.20;67.10;;;;;;5498071;26;20700;-73
2024/04/13 09:18:45;;;;;;;11.77;6.93;;;23.40;67.50;;;;;;5513078;26;20022;-73
2024/04/13 09:21:13;;;;;;;10.65;6.28;;;23.60;68.80;;;;;;5489450;26;20018;-79
2024/04/13 09:23:42;;;;;;;17.80;6.85;;;23.40;67.00;;;;;;5487855;26;20013;-74
2024/04/13 09:26:10;;;;;;;11.18;6.35;;;23.40;66.70;;;;;;5488651;26;20055;-75
2024/04/13 09:28:39;;;;;;;10.15;6.97;;;23.40;66.20;;;;;;5489665;26;20030;-74
2024/04/13 09:31:09;;;;;;;8.57;6.40;;;23.40;65.10;;;;;;5493421;26;20378;-74
2024/04/13 09:33:40;;;;;;;11.05;6.47;;;23.60;65.20;;;;;;5516967;26;20382;-74
2024/04/13 09:36:08;;;;;;;11.90;7.15;;;23.90;65.30;;;;;;5489584;26;20314;-73
2024/04/13 09:38:36;;;;;;;14.05;8.38;;;24.10;64.90;;;;;;5462002;26;20003;-75
2024/04/13 09:41:07;;;;;;;11.50;6.97;;;24.20;65.20;;;;;;5504260;26;20001;-73
2024/04/13 09:43:35;;;;;;;70.82;47.15;;;24.30;64.90;;;;;;5484017;26;20033;-74
2024/04/13 09:46:06;;;;;;;18.55;10.18;;;24.40;65.00;;;;;;5492928;26;20014;-73
2024/04/13 09:48:33;;;;;;;11.10;7.93;;;24.40;64.50;;;;;;5495060;26;20002;-76
2024/04/13 09:51:01;;;;;;;11.60;7.30;;;24.20;64.50;;;;;;5477749;26;20310;-75
2024/04/13 09:53:29;;;;;;;13.75;7.70;;;24.30;65.40;;;;;;5477895;26;20002;-76
2024/04/13 09:55:57;;;;;;;13.13;7.35;;;24.40;65.40;;;;;;5488569;26;20006;-75
2024/04/13 09:58:24;;;;;;;12.60;8.30;;;24.50;64.90;;;;;;5488898;26;20346;-75
2024/04/13 10:00:52;;;;;;;17.58;8.70;;;24.60;65.00;;;;;;5487866;26;20021;-76
2024/04/13 10:03:20;;;;;;;14.25;8.00;;;24.80;64.00;;;;;;5488378;26;20017;-78
2024/04/13 10:05:48;;;;;;;15.65;8.30;;;25.00;64.10;;;;;;5488086;26;20002;-74
2024/04/13 10:08:15;;;;;;;10.90;7.85;;;24.90;63.30;;;;;;5488620;26;19998;-74
2024/04/13 10:10:47;;;;;;;12.15;7.25;;;24.80;63.40;;;;;;5488298;26;20006;-75
2024/04/13 10:13:22;;;;;;;13.32;7.53;;;24.80;63.10;;;;;;5488681;26;20002;-75
2024/04/13 10:15:49;;;;;;;12.20;6.72;;;24.80;63.60;;;;;;5493136;26;20002;-75
2024/04/13 10:18:18;;;;;;;10.40;6.68;;;24.90;63.80;;;;;;5488478;26;20017;-76
2024/04/13 10:20:46;;;;;;;14.05;7.00;;;25.00;63.30;;;;;;5466479;26;20017;-75
2024/04/13 10:23:14;;;;;;;12.32;6.90;;;25.10;63.20;;;;;;5496407;26;20031;-76
2024/04/13 10:25:41;;;;;;;11.13;7.22;;;24.90;62.40;;;;;;5525724;26;20013;-76
2024/04/13 10:28:21;;;;;;;11.98;7.07;;;24.90;63.60;;;;;;5459550;26;20696;-77
2024/04/13 10:30:53;;;;;;;18.87;14.63;;;24.90;63.00;;;;;;5512732;26;20456;-76
2024/04/13 10:33:30;;;;;;;31.98;25.17;;;25.20;62.60;;;;;;5491533;26;20048;-77
2024/04/13 10:36:04;;;;;;;61.75;48.40;;;25.50;62.50;;;;;;5488437;26;20091;-75
2024/04/13 10:38:33;;;;;;;15.95;9.82;;;25.60;62.40;;;;;;5470185;26;19998;-75
2024/04/13 10:41:02;;;;;;;12.68;7.82;;;25.60;61.10;;;;;;5507507;26;20046;-76
2024/04/13 10:43:30;;;;;;;13.52;7.13;;;25.50;60.90;;;;;;5513990;26;20049;-76
2024/04/13 10:45:59;;;;;;;11.93;6.95;;;25.20;61.10;;;;;;5456644;26;20314;-76
2024/04/13 10:48:31;;;;;;;9.13;7.20;;;25.20;61.40;;;;;;5510797;26;20013;-76
2024/04/13 10:50:59;;;;;;;17.45;12.20;;;25.60;61.30;;;;;;5462957;26;20012;-77
2024/04/13 10:53:28;;;;;;;11.18;6.90;;;25.90;61.10;;;;;;5511057;26;19998;-75
2024/04/13 10:55:58;;;;;;;19.10;10.55;;;25.80;60.40;;;;;;5475050;26;20521;-76
2024/04/13 10:58:30;;;;;;;46.58;33.88;;;25.80;60.50;;;;;;5487594;26;20006;-76
2024/04/13 11:00:59;;;;;;;111.25;87.50;;;25.90;61.00;;;;;;5487997;26;20388;-77
2024/04/13 11:03:29;;;;;;;24.20;14.75;;;26.00;60.70;;;;;;5497012;26;19993;-78
2024/04/13 11:06:00;;;;;;;12.13;7.57;;;26.10;60.50;;;;;;5483792;26;20016;-77
2024/04/13 11:08:28;;;;;;;11.02;6.65;;;26.30;60.10;;;;;;5490635;26;20041;-78
2024/04/13 11:10:57;;;;;;;14.45;6.45;;;26.30;59.40;;;;;;5488600;26;20002;-78
2024/04/13 11:13:25;;;;;;;20.70;9.05;;;26.40;60.40;;;;;;5487123;26;20013;-78
2024/04/13 11:15:54;;;;;;;15.60;9.03;;;26.60;60.00;;;;;;5488044;26;20010;-76
2024/04/13 11:18:22;;;;;;;15.55;6.90;;;26.90;59.60;;;;;;5469363;26;20002;-78
2024/04/13 11:20:53;;;;;;;16.65;7.93;;;28.10;57.90;;;;;;5455808;26;20338;-76
2024/04/13 11:23:21;;;;;;;13.90;7.50;;;30.50;54.70;;;;;;5497096;26;20339;-80
2024/04/13 11:25:49;;;;;;;13.88;7.75;;;32.10;52.00;;;;;;5496649;26;20026;-79
2024/04/13 11:28:19;;;;;;;18.52;7.80;;;32.50;51.40;;;;;;5486512;26;20844;-79
2024/04/13 11:30:47;;;;;;;23.67;10.02;;;33.00;50.90;;;;;;5493581;26;20413;-78
2024/04/13 11:33:15;;;;;;;22.42;10.65;;;33.20;49.60;;;;;;5477964;26;20010;-79
2024/04/13 11:36:00;;;;;;;19.48;8.25;;;32.90;49.50;;;;;;5455077;26;20002;-81
2024/04/13 11:38:37;;;;;;;28.60;10.38;;;32.30;49.50;;;;;;5486848;26;20371;-80
2024/04/13 11:41:06;;;;;;;25.38;9.82;;;31.70;49.90;;;;;;5456069;26;20362;-79
2024/04/13 11:43:34;;;;;;;14.98;7.80;;;31.00;51.10;;;;;;5462762;26;19997;-81
2024/04/13 11:46:02;;;;;;;10.02;6.70;;;31.00;51.00;;;;;;5471475;26;20410;-78
2024/04/13 11:48:31;;;;;;;22.17;12.47;;;30.80;52.20;;;;;;5458230;26;20014;-79
2024/04/13 11:50:59;;;;;;;16.33;9.77;;;30.50;52.40;;;;;;5490793;26;20434;-80
2024/04/13 11:53:27;;;;;;;18.45;14.82;;;30.20;53.70;;;;;;5489890;26;20006;-79
2024/04/13 11:55:56;;;;;;;17.00;10.48;;;29.90;54.90;;;;;;5516205;26;20437;-76
2024/04/13 11:58:23;;;;;;;;;;;29.60;55.10;;;;;;5464985;26;20038;-79
2024/04/13 12:00:51;;;;;;;12.55;7.15;;;29.70;54.10;;;;;;5499880;26;19932;-77
2024/04/13 12:03:19;;;;;;;9.00;6.00;;;29.70;54.30;;;;;;5505678;26;20337;-77
2024/04/13 12:05:47;;;;;;;12.57;6.50;;;29.70;53.90;;;;;;5458586;26;20207;-78
2024/04/13 12:08:14;;;;;;;17.03;11.83;;;29.50;54.30;;;;;;5507005;26;20012;-78
2024/04/13 12:10:42;;;;;;;31.67;27.25;;;29.50;54.00;;;;;;5489977;26;20337;-83
2024/04/13 12:13:09;;;;;;;39.40;33.00;;;29.60;53.90;;;;;;5476716;26;20428;-83
2024/04/13 12:15:36;;;;;;;20.52;14.43;;;29.10;54.00;;;;;;5501738;26;20006;-79
2024/04/13 12:18:05;;;;;;;14.10;7.97;;;28.60;55.00;;;;;;5477246;26;20034;-77
2024/04/13 12:20:33;;;;;;;20.05;15.55;;;28.20;55.40;;;;;;5518483;26;20332;-79
2024/04/13 12:23:03;;;;;;;84.32;71.03;;;27.90;56.00;;;;;;5489500;26;20038;-77
2024/04/13 12:25:31;;;;;;;26.67;21.48;;;28.00;55.00;;;;;;5489631;26;19998;-76
2024/04/13 12:27:59;;;;;;;18.42;14.80;;;27.90;54.20;;;;;;5459353;26;20757;-78
2024/04/13 12:30:30;;;;;;;15.52;9.85;;;27.90;55.10;;;;;;5496986;26;20312;-78
2024/04/13 12:32:57;;;;;;;15.02;9.65;;;27.80;55.00;;;;;;5511509;26;20021;-80
2024/04/13 12:35:25;;;;;;;12.18;6.95;;;27.60;55.10;;;;;;5495854;26;20005;-76
2024/04/13 12:37:53;;;;;;;10.93;7.00;;;27.60;55.00;;;;;;5490280;26;20010;-78
2024/04/13 12:40:20;;;;;;;12.10;8.82;;;27.90;55.00;;;;;;5490487;26;20014;-78